Strona główna
METAR-TAF:

METAR-TAF

Lotnisko :

Pocono Mountains Municipal Airport

Mount Pocono, Pensylwania, Stany Zjednoczone

Szerokość geograficzna: 41-08-20N, Długość geograficzna: 075-23-46W, wysokość: 584 m

Aktualna obserwacja pogody

Raport powstał 1 godzina i 0 minut temu, godzina 10:53 UTC
Wiatr 7 kt od wschód
Temperatura 4°C
Wilgotność 44%
Ciśnienie 1017 hPa
Widzialność: 16.1 km
Zachmurzenie całkowite na wysokości 11000 ft

METAR: KMPO 281053Z AUTO 09007KT 10SM OVC110 04/M07 A3002 RMK AO2 SLP174 T00441067

czas: 07:53 (11:53 UTC)


TAF: brakujący

Obserwacja i prognoza pogody dla ponad 4000 lotnisk (raport METAR i TAF).

Dostępne stacje oznaczono żółtymi i czerwonymi punktami na mapie.

Najedź kursorem aby zobaczyć nazwę stacji.

Kliknij aby zobaczyć obserwacje i prognozy pogody.

Aby zmienić mapę: kliknij na zielony przycisk z czarnym krzyżykiem, aby powiększyć; na zielony przycisk z myślnikiem, aby pomniejszyć; na zielone strzałki, aby przejść do map sąsiednich.


METAR-TAF: